Terminal Aerodrome Forecast
Issued by NWS Tampa Bay Area, FL

Home | Current Version | Previous Version | Text Only | Print | Product List | Glossary On
Versions: 1 2 3 4 5 6 7 8 9 10 11 12
000
FTUS42 KTBW 202332
TAFFMY
TAF
KFMY 202332Z 2100/2124 21005KT P6SM FEW250
     FM210900 16004KT 5SM BR FEW010 SCT250
     FM211400 16005KT P6SM FEW010 SCT250
     FM211600 18010KT P6SM FEW020 SCT250
     FM211800 21013G19KT P6SM FEW030 SCT250=

USA.gov is the U.S. government's official web portal to all federal, state and local government web resources and services.